Flight Track Log - Related Links

Times and Time Zones

All times are in EDT time to prevent confusion due to time zone crossing. See the EZY2759 flight status page for this flight to view local times or setup timezone preferences in your user account.

Time Position Orientation Groundspeed Altitude Reporting Facility
EDT Latitude Longitude Course Direction KTS MPH feet Rate Location/Type
Fri 12:45:00 AM 45.2892 8.1439 230° Southwest  Level Estimated
Fri 12:46:00 AM 45.2402 8.0610 230° Southwest  Level Estimated
Fri 12:47:00 AM 45.1911 7.9782 230° Southwest  Level Estimated
Fri 12:48:00 AM 45.1419 7.8956 230° Southwest  Level Estimated
Fri 12:49:00 AM 45.0927 7.8131 230° Southwest  Level Estimated
Fri 12:50:00 AM 45.0435 7.7308 230° Southwest  Level Estimated
Fri 12:51:00 AM 44.9941 7.6487 230° Southwest  Level Estimated
Fri 12:52:00 AM 44.9448 7.5666 230° Southwest  Level Estimated
Fri 12:53:00 AM 44.8954 7.4847 230° Southwest  Level Estimated
Fri 12:54:00 AM 44.8459 7.4029 230° Southwest  Level Estimated
Fri 12:55:00 AM 44.7963 7.3213 229° Southwest  Level Estimated
Fri 12:56:00 AM 44.7467 7.2399 229° Southwest  Level Estimated
Fri 12:57:00 AM 44.6970 7.1585 229° Southwest  Level Estimated
Fri 12:58:00 AM 44.6473 7.0773 229° Southwest  Level Estimated
Fri 12:59:00 AM 44.5909 6.9855 229° Southwest  Level Estimated
Fri 01:00:00 AM 44.5344 6.8938 229° Southwest  Level Estimated
Fri 01:01:00 AM 44.4778 6.8023 229° Southwest  Level Estimated
Fri 01:02:00 AM 44.4212 6.7110 229° Southwest  Level Estimated
Fri 01:03:00 AM 44.3645 6.6198 229° Southwest  Level Estimated
Fri 01:04:00 AM 44.3077 6.5289 229° Southwest  Level Estimated
Fri 01:05:00 AM 44.2508 6.4381 229° Southwest  Level Estimated
Fri 01:06:00 AM 44.1939 6.3474 229° Southwest  Level Estimated
Fri 01:07:00 AM 44.1369 6.2570 229° Southwest  Level Estimated
Fri 01:08:00 AM 44.0798 6.1667 229° Southwest  Level Estimated
Fri 01:09:00 AM 44.0227 6.0766 229° Southwest  Level Estimated
Fri 01:10:00 AM 43.9655 5.9867 229° Southwest  Level Estimated
Fri 01:11:00 AM 43.9082 5.8970 228° Southwest  Level Estimated
Fri 01:12:00 AM 43.8508 5.8074 228° Southwest  Level Estimated
Fri 01:13:00 AM 43.7934 5.7180 228° Southwest  Level Estimated
Fri 01:14:00 AM 43.7359 5.6288 228° Southwest  Level Estimated
Fri 01:15:00 AM 43.6783 5.5397 228° Southwest  Level Estimated
Fri 01:16:00 AM 43.6207 5.4508 228° Southwest  Level Estimated
Fri 01:17:00 AM 43.5630 5.3621 228° Southwest  Level Estimated
Fri 01:18:00 AM 43.5052 5.2736 228° Southwest  Level Estimated
Fri 01:19:00 AM 43.4474 5.1852 228° Southwest  Level Estimated
Fri 01:20:00 AM 43.3895 5.0970 228° Southwest  Level Estimated
Fri 01:21:00 AM 43.3315 5.0089 228° Southwest  Level Estimated
Fri 01:22:00 AM 43.2735 4.9211 228° Southwest  Level Estimated
Fri 01:23:00 AM 43.2154 4.8334 228° Southwest  Level Estimated
Fri 01:24:00 AM 43.1572 4.7458 228° Southwest  Level Estimated
Fri 01:25:00 AM 43.0989 4.6585 228° Southwest  Level Estimated
Fri 01:26:00 AM 43.0406 4.5712 228° Southwest  Level Estimated
Fri 01:27:00 AM 42.9822 4.4842 228° Southwest  Level Estimated
Fri 01:28:00 AM 42.9238 4.3973 227° Southwest  Level Estimated
Fri 01:29:00 AM 42.8653 4.3106 227° Southwest  Level Estimated
Fri 01:30:00 AM 42.8067 4.2241 227° Southwest  Level Estimated
Fri 01:31:00 AM 42.7481 4.1377 227° Southwest  Level Estimated
Fri 01:32:00 AM 42.6894 4.0515 227° Southwest  Level Estimated
Fri 01:33:00 AM 42.6306 3.9654 227° Southwest  Level Estimated
Fri 01:34:00 AM 42.5718 3.8795 227° Southwest  Level Estimated
Fri 01:35:00 AM 42.5129 3.7938 227° Southwest  Level Estimated
Fri 01:36:00 AM 42.4539 3.7083 227° Southwest  Level Estimated
Fri 01:37:00 AM 42.3949 3.6228 227° Southwest  Level Estimated
Fri 01:38:00 AM 42.3358 3.5376 227° Southwest  Level Estimated
Fri 01:39:00 AM 42.2767 3.4525 227° Southwest  Level Estimated
Fri 01:40:00 AM 42.2190 3.3698 227° Southwest  Level Estimated
Fri 01:41:00 AM 42.1613 3.2872 227° Southwest  Level Estimated
Fri 01:42:00 AM 42.1035 3.2048 227° Southwest  Level Estimated
Fri 01:43:00 AM 42.0456 3.1225 227° Southwest  Level Estimated
Fri 01:44:00 AM 41.9877 3.0404 227° Southwest  Level Estimated
Fri 01:45:00 AM 41.9297 2.9584 226° Southwest  Level Estimated
Fri 01:46:00 AM 41.8717 2.8766 226° Southwest  Level Estimated
Fri 01:47:00 AM 41.8136 2.7949 226° Southwest  Level Estimated
Fri 01:48:00 AM 41.7555 2.7134 226° Southwest  Level Estimated
Fri 01:49:00 AM 41.6973 2.6320 226° Southwest  Level Estimated
Fri 01:50:00 AM 41.6390 2.5508 226° Southwest  Level Estimated
Fri 01:51:00 AM 41.5807 2.4697 226° Southwest  Level Estimated
Fri 01:52:00 AM 41.5224 2.3888 226° Southwest  Level Estimated
Fri 01:53:00 AM 41.4639 2.3080 226° Southwest  Level Estimated
Fri 01:54:00 AM 41.4055 2.2273 226° Southwest  Level Estimated
Fri 01:55:00 AM 41.3469 2.1468 226° Southwest  Level Estimated
Fri 01:56:00 AM 41.2971 2.0785 226° Southwest  Level Estimated
Fri 01:57:00 AM 41.2971 2.0785 124° Southeast  Level Estimated
Fri 01:58:00 AM 41.2971 2.0785 124° Southeast  Level Estimated
Fri 01:59:00 AM 41.2971 2.0785 124° Southeast  Level Estimated
Fri 02:00:00 AM 41.2971 2.0785 124° Southeast  Level Estimated
Fri 02:01:00 AM 41.2971 2.0785 124° Southeast  Level Estimated
Fri 02:02:00 AM 41.2971 2.0785 124° Southeast  Level Estimated
Fri 02:03:00 AM 41.2971 2.0785 124° Southeast  Level Estimated
Fri 02:04:00 AM 41.2971 2.0785 124° Southeast  Level Estimated
Fri 02:05:00 AM 41.2971 2.0785 124° Southeast  Level Estimated
Fri 02:06:00 AM 41.2971 2.0785 124° Southeast  Level Estimated
Fri 02:07:00 AM 41.2971 2.0785 124° Southeast  Level Estimated
Fri 02:08:00 AM 41.2971 2.0785 124° Southeast  Level Estimated

Login

Don't have an account? Register now (free) for customized features, flight alerts, and more!